createdAt,value
2019-02-06T00:02:02.598Z,17.27
2019-02-06T00:04:06.859Z,18.50
2019-02-06T00:06:11.233Z,18.15
2019-02-06T00:08:15.451Z,20.25
2019-02-06T00:10:19.559Z,16.32
2019-02-06T00:12:23.656Z,19.75
2019-02-06T00:14:27.779Z,18.42
2019-02-06T00:16:31.985Z,18.57
2019-02-06T00:18:41.168Z,18.60
2019-02-06T00:20:45.346Z,23.22
2019-02-06T00:22:49.459Z,22.93
2019-02-06T00:24:53.265Z,23.87
2019-02-06T00:26:57.761Z,22.17
2019-02-06T00:29:01.970Z,19.50
2019-02-06T00:31:05.954Z,24.50
2019-02-06T00:33:10.085Z,23.30
2019-02-06T00:35:25.268Z,23.75
2019-02-06T00:37:20.067Z,26.02
2019-02-06T00:39:24.259Z,25.30
2019-02-06T00:41:30.487Z,25.32
2019-02-06T00:43:33.663Z,30.57
2019-02-06T00:45:37.497Z,25.37
2019-02-06T00:47:41.401Z,28.47
2019-02-06T00:49:45.648Z,23.45
2019-02-06T00:51:49.853Z,25.12
2019-02-06T00:53:55.489Z,27.30
2019-02-06T00:55:59.411Z,27.98
2019-02-06T00:58:03.617Z,28.95
2019-02-06T01:00:14.825Z,25.35
2019-02-06T01:02:19.011Z,26.90
2019-02-06T01:04:25.289Z,28.55
2019-02-06T01:06:29.163Z,24.60
2019-02-06T01:08:33.391Z,24.23
2019-02-06T01:10:37.895Z,25.95
2019-02-06T01:12:42.621Z,24.10
2019-02-06T01:14:46.743Z,24.07
2019-02-06T01:16:50.941Z,21.30
2019-02-06T01:18:55.166Z,22.37
2019-02-06T01:20:59.677Z,28.05
2019-02-06T01:23:03.595Z,21.45
2019-02-06T01:25:10.249Z,22.05
2019-02-06T01:27:14.357Z,24.10
2019-02-06T01:29:18.191Z,22.10
2019-02-06T01:31:23.203Z,22.85
2019-02-06T01:33:27.414Z,21.77
2019-02-06T01:35:31.522Z,20.65
2019-02-06T01:37:35.729Z,21.95
2019-02-06T01:39:39.846Z,25.30
2019-02-06T01:41:44.118Z,21.65
2019-02-06T01:43:48.259Z,24.05
2019-02-06T01:45:52.366Z,19.87
2019-02-06T01:47:56.478Z,20.70
2019-02-06T01:50:00.697Z,19.00
2019-02-06T01:52:04.980Z,16.73
2019-02-06T01:54:09.128Z,18.82
2019-02-06T01:56:13.231Z,22.65
2019-02-06T01:58:18.886Z,22.40
2019-02-06T02:00:25.969Z,23.20
2019-02-06T02:02:30.477Z,21.90
2019-02-06T02:04:34.580Z,18.73
2019-02-06T02:06:38.696Z,19.15
2019-02-06T02:08:44.354Z,21.07
2019-02-06T02:10:48.564Z,19.00
2019-02-06T02:12:52.870Z,20.50
2019-02-06T02:14:56.732Z,16.90
2019-02-06T02:17:00.888Z,21.23
2019-02-06T02:19:05.506Z,19.52
2019-02-06T02:21:09.636Z,20.65
2019-02-06T02:23:14.135Z,18.15
2019-02-06T02:25:18.462Z,16.50
2019-02-06T02:27:22.577Z,23.42
2019-02-06T02:29:26.776Z,18.17
2019-02-06T02:31:31.210Z,20.27
2019-02-06T02:33:35.624Z,18.20
2019-02-06T02:35:40.824Z,17.45
2019-02-06T02:37:45.063Z,18.70
2019-02-06T02:39:49.270Z,15.23
2019-02-06T02:41:53.390Z,26.45
2019-02-06T02:43:57.662Z,26.27
2019-02-06T02:46:01.811Z,20.32
2019-02-06T02:48:07.413Z,19.90
2019-02-06T02:50:12.232Z,21.35
2019-02-06T02:52:16.390Z,23.42
2019-02-06T02:54:20.513Z,22.75
2019-02-06T02:56:24.722Z,20.37
2019-02-06T02:58:28.557Z,23.73
2019-02-06T03:00:49.437Z,22.40
2019-02-06T03:03:11.664Z,20.30
2019-02-06T03:05:16.090Z,22.62
2019-02-06T03:07:20.288Z,20.55
2019-02-06T03:09:24.408Z,19.77
2019-02-06T03:11:28.635Z,18.60
2019-02-06T03:13:32.838Z,17.90
2019-02-06T03:15:37.028Z,16.17
2019-02-06T03:17:41.252Z,18.10
2019-02-06T03:19:47.316Z,15.88
2019-02-06T03:21:51.732Z,15.90
2019-02-06T03:23:55.953Z,16.67
2019-02-06T03:26:00.054Z,17.17
2019-02-06T03:28:04.162Z,20.57
2019-02-06T03:30:17.548Z,20.57
2019-02-06T03:32:21.690Z,14.85
2019-02-06T03:34:25.813Z,18.80
2019-02-06T03:36:39.845Z,13.95
2019-02-06T03:38:35.868Z,15.00
2019-02-06T03:40:40.097Z,15.20
2019-02-06T03:42:43.911Z,14.65
2019-02-06T03:44:48.105Z,12.47
2019-02-06T03:46:53.482Z,12.65
2019-02-06T03:48:57.952Z,15.30
2019-02-06T03:51:02.270Z,14.05
2019-02-06T03:53:06.485Z,15.38
2019-02-06T03:55:11.714Z,16.67
2019-02-06T03:57:16.031Z,13.93
2019-02-06T03:59:20.248Z,12.78
2019-02-06T04:01:24.347Z,17.30
2019-02-06T04:03:28.464Z,12.80
2019-02-06T04:05:32.312Z,14.75
2019-02-06T04:07:36.474Z,14.65
2019-02-06T04:09:40.586Z,11.85
2019-02-06T04:11:44.429Z,12.05
2019-02-06T04:13:48.315Z,9.68
2019-02-06T04:15:52.515Z,10.03
2019-02-06T04:17:56.618Z,9.18
2019-02-06T04:20:00.727Z,9.05
2019-02-06T04:22:05.047Z,9.70
2019-02-06T04:24:09.276Z,9.05
2019-02-06T04:26:13.379Z,10.28
2019-02-06T04:28:17.225Z,11.93
2019-02-06T04:30:21.717Z,13.55
2019-02-06T04:32:25.921Z,11.88
2019-02-06T04:34:29.759Z,12.43
2019-02-06T04:36:35.756Z,9.08
2019-02-06T04:38:40.071Z,9.83
2019-02-06T04:40:44.190Z,11.65
2019-02-06T04:42:48.400Z,13.68
2019-02-06T04:44:54.391Z,11.70
2019-02-06T04:47:00.105Z,11.08
2019-02-06T04:49:03.937Z,10.75
2019-02-06T04:51:08.134Z,10.70
2019-02-06T04:53:12.337Z,10.45
2019-02-06T04:55:18.956Z,10.05
2019-02-06T04:57:23.521Z,9.95
2019-02-06T04:59:27.646Z,9.80
2019-02-06T05:01:31.851Z,12.40
2019-02-06T05:03:36.067Z,11.68
2019-02-06T05:05:40.267Z,13.62
2019-02-06T05:07:44.536Z,10.98
2019-02-06T05:09:48.714Z,10.88
2019-02-06T05:11:52.908Z,12.33
2019-02-06T05:13:57.066Z,13.03
2019-02-06T05:16:01.334Z,14.85
2019-02-06T05:18:05.866Z,17.00
2019-02-06T05:20:21.533Z,14.98
2019-02-06T05:22:25.363Z,13.88
2019-02-06T05:24:29.567Z,13.85
2019-02-06T05:26:33.762Z,16.93
2019-02-06T05:28:37.884Z,17.65
2019-02-06T05:30:42.181Z,14.95
2019-02-06T05:32:45.999Z,13.00
2019-02-06T05:34:50.225Z,13.08
2019-02-06T05:36:54.426Z,13.58
2019-02-06T05:38:58.267Z,13.32
2019-02-06T05:41:02.461Z,11.73
2019-02-06T05:43:06.651Z,11.93
2019-02-06T05:45:12.239Z,11.88
2019-02-06T05:47:16.101Z,13.40
2019-02-06T05:49:20.207Z,13.32
2019-02-06T05:51:24.035Z,13.45
2019-02-06T05:53:28.222Z,15.75
2019-02-06T05:55:32.038Z,11.50
2019-02-06T05:57:36.239Z,14.38
2019-02-06T05:59:40.779Z,16.30
2019-02-06T06:01:44.607Z,14.07
2019-02-06T06:03:48.769Z,19.60
2019-02-06T06:05:52.992Z,16.35
2019-02-06T06:07:57.099Z,13.83
2019-02-06T06:10:01.506Z,10.90
2019-02-06T06:12:05.394Z,15.35
2019-02-06T06:14:09.572Z,14.55
2019-02-06T06:16:13.681Z,13.72
2019-02-06T06:18:17.841Z,14.33
2019-02-06T06:20:22.161Z,13.40
2019-02-06T06:22:26.414Z,14.98
2019-02-06T06:24:30.696Z,17.52
2019-02-06T06:26:34.520Z,22.77
2019-02-06T06:28:38.355Z,21.40
2019-02-06T06:30:42.519Z,17.40
2019-02-06T06:32:46.727Z,21.07
2019-02-06T06:34:50.559Z,15.15
2019-02-06T06:36:56.915Z,18.60
2019-02-06T06:39:00.616Z,24.65
2019-02-06T06:41:04.491Z,21.42
2019-02-06T06:43:08.721Z,20.02
2019-02-06T06:45:24.291Z,19.80
2019-02-06T06:47:28.495Z,25.10
2019-02-06T06:49:32.319Z,19.90
2019-02-06T06:51:36.341Z,18.32
2019-02-06T06:53:40.519Z,17.90
2019-02-06T06:55:46.693Z,18.17
2019-02-06T06:57:50.584Z,19.85
2019-02-06T06:59:55.697Z,18.85
2019-02-06T07:02:00.028Z,17.37
2019-02-06T07:04:04.254Z,16.85
2019-02-06T07:06:08.144Z,20.90
2019-02-06T07:08:13.536Z,19.80
2019-02-06T07:10:18.406Z,18.37
2019-02-06T07:12:22.553Z,21.93
2019-02-06T07:14:26.647Z,20.23
2019-02-06T07:16:30.859Z,20.50
2019-02-06T07:18:35.076Z,19.67
2019-02-06T07:20:39.177Z,20.97
2019-02-06T07:22:43.025Z,17.20
2019-02-06T07:24:46.861Z,19.40
2019-02-06T07:26:50.992Z,20.35
2019-02-06T07:28:55.212Z,17.32
2019-02-06T07:30:59.331Z,24.47
2019-02-06T07:33:03.663Z,25.48
2019-02-06T07:35:07.949Z,25.43
2019-02-06T07:37:12.058Z,27.77
2019-02-06T07:39:15.894Z,34.25
2019-02-06T07:41:19.754Z,29.20
2019-02-06T07:43:23.882Z,31.50
2019-02-06T07:45:28.086Z,36.03
2019-02-06T07:47:31.935Z,36.45
2019-02-06T07:49:35.760Z,37.60
2019-02-06T07:51:39.902Z,33.25
2019-02-06T07:53:44.212Z,35.33
2019-02-06T07:55:48.339Z,37.93
2019-02-06T07:57:52.538Z,37.13
2019-02-06T07:59:56.750Z,38.40
2019-02-06T08:02:00.976Z,35.75
2019-02-06T08:04:05.486Z,35.95
2019-02-06T08:06:09.711Z,37.85
2019-02-06T08:08:13.922Z,35.83
2019-02-06T08:10:29.443Z,40.38
2019-02-06T08:12:33.233Z,40.58
2019-02-06T08:14:37.407Z,34.43
2019-02-06T08:16:41.617Z,44.05
2019-02-06T08:18:45.834Z,73.50
2019-02-06T08:20:49.953Z,65.10
2019-02-06T08:22:54.355Z,36.05
2019-02-06T08:24:58.977Z,38.15
2019-02-06T08:27:03.190Z,40.33
2019-02-06T08:29:07.016Z,42.88
2019-02-06T08:31:11.129Z,44.10
2019-02-06T08:33:14.940Z,42.80
2019-02-06T08:35:18.776Z,41.05
2019-02-06T08:37:23.334Z,41.42
2019-02-06T08:39:27.452Z,41.98
2019-02-06T08:41:31.565Z,42.62
2019-02-06T08:43:35.789Z,41.95
2019-02-06T08:45:39.879Z,38.17
2019-02-06T08:47:44.501Z,46.20
2019-02-06T08:49:48.718Z,39.67
2019-02-06T08:51:52.534Z,45.28
2019-02-06T08:53:56.376Z,37.80
2019-02-06T08:56:00.192Z,35.68
2019-02-06T08:58:04.805Z,32.38
2019-02-06T09:00:14.114Z,34.92
2019-02-06T09:02:18.292Z,36.48
2019-02-06T09:04:22.118Z,34.58
2019-02-06T09:06:26.026Z,35.70
2019-02-06T09:08:30.226Z,35.58
2019-02-06T09:10:34.416Z,38.90
2019-02-06T09:12:38.644Z,74.67
2019-02-06T09:14:42.746Z,48.75
2019-02-06T09:16:46.565Z,36.48
2019-02-06T09:18:50.852Z,39.10
2019-02-06T09:20:54.984Z,36.48
2019-02-06T09:22:59.552Z,32.63
2019-02-06T09:25:04.742Z,62.70
2019-02-06T09:27:09.059Z,43.92
2019-02-06T09:29:13.472Z,220.20
2019-02-06T09:31:17.675Z,79.25
2019-02-06T09:33:21.800Z,78.25
2019-02-06T09:35:26.004Z,56.18
2019-02-06T09:37:30.206Z,49.60
2019-02-06T09:39:34.530Z,56.35
2019-02-06T09:41:38.740Z,31.50
2019-02-06T09:43:42.952Z,33.28
2019-02-06T09:45:47.068Z,33.40
2019-02-06T09:47:51.288Z,26.37
2019-02-06T09:49:57.862Z,31.15
2019-02-06T09:52:02.067Z,33.13
2019-02-06T09:54:06.363Z,33.98
2019-02-06T09:56:10.586Z,34.15
2019-02-06T09:58:14.857Z,29.87
2019-02-06T10:00:21.768Z,29.63
2019-02-06T10:02:27.935Z,29.95
2019-02-06T10:04:32.071Z,29.98
2019-02-06T10:06:35.937Z,32.38
2019-02-06T10:08:40.155Z,27.13
2019-02-06T10:10:44.581Z,26.87
2019-02-06T10:12:48.887Z,30.72
2019-02-06T10:14:53.007Z,28.35
2019-02-06T10:16:57.122Z,27.58
2019-02-06T10:19:01.328Z,29.07
2019-02-06T10:21:05.842Z,31.25
2019-02-06T10:23:11.173Z,29.42
2019-02-06T10:25:15.180Z,27.35
2019-02-06T10:27:19.309Z,26.82
2019-02-06T10:29:23.512Z,28.57
2019-02-06T10:31:27.639Z,27.00
2019-02-06T10:33:31.741Z,23.05
2019-02-06T10:35:35.941Z,25.27
2019-02-06T10:37:39.785Z,23.00
2019-02-06T10:39:43.607Z,25.45
2019-02-06T10:41:48.195Z,24.57
2019-02-06T10:43:52.382Z,21.90
2019-02-06T10:45:56.500Z,26.20
2019-02-06T10:48:00.611Z,22.73
2019-02-06T10:50:07.696Z,22.45
2019-02-06T10:52:11.806Z,21.17
2019-02-06T10:54:18.254Z,20.25
2019-02-06T10:56:22.484Z,20.77
2019-02-06T10:58:26.584Z,20.95
2019-02-06T11:00:33.714Z,18.52
2019-02-06T11:02:37.887Z,19.62
2019-02-06T11:04:41.994Z,20.25
2019-02-06T11:06:46.193Z,19.92
2019-02-06T11:08:50.406Z,21.27
2019-02-06T11:10:54.366Z,18.82
2019-02-06T11:12:58.835Z,20.35
2019-02-06T11:15:03.058Z,18.77
2019-02-06T11:17:08.587Z,18.92
2019-02-06T11:19:12.716Z,18.55
2019-02-06T11:21:16.927Z,19.37
2019-02-06T11:23:23.012Z,21.20
2019-02-06T11:25:27.297Z,24.55
2019-02-06T11:27:31.502Z,18.73
2019-02-06T11:29:35.724Z,18.37
2019-02-06T11:31:39.537Z,19.30
2019-02-06T11:33:43.843Z,16.27
2019-02-06T11:35:47.665Z,15.10
2019-02-06T11:37:55.859Z,19.10
2019-02-06T11:40:00.066Z,17.82
2019-02-06T11:42:04.259Z,16.50
2019-02-06T11:44:08.500Z,15.58
2019-02-06T11:46:13.019Z,16.87
2019-02-06T11:48:16.854Z,16.37
2019-02-06T11:50:23.918Z,15.28
2019-02-06T11:52:28.201Z,17.52
2019-02-06T11:54:32.520Z,16.07
2019-02-06T11:56:36.836Z,16.52
2019-02-06T11:58:41.035Z,15.83
2019-02-06T12:00:53.041Z,15.85
2019-02-06T12:02:57.241Z,16.75
2019-02-06T12:05:01.377Z,13.15
2019-02-06T12:07:05.684Z,12.30
2019-02-06T12:09:14.025Z,12.20
2019-02-06T12:11:18.193Z,12.00
2019-02-06T12:13:22.400Z,11.48
2019-02-06T12:15:26.524Z,11.50
2019-02-06T12:17:30.745Z,11.78
2019-02-06T12:19:34.862Z,10.08
2019-02-06T12:21:39.053Z,11.97
2019-02-06T12:23:43.254Z,11.90
2019-02-06T12:25:47.070Z,11.00
2019-02-06T12:27:57.628Z,11.93
2019-02-06T12:30:02.047Z,12.30
2019-02-06T12:32:08.419Z,13.90
2019-02-06T12:34:11.985Z,14.33
2019-02-06T12:36:16.046Z,15.90
2019-02-06T12:38:19.605Z,15.13
2019-02-06T12:40:24.259Z,14.20
2019-02-06T12:42:27.773Z,12.83
2019-02-06T12:44:31.642Z,14.10
2019-02-06T12:46:35.564Z,14.23
2019-02-06T12:48:39.551Z,13.63
2019-02-06T12:50:43.447Z,14.00
2019-02-06T12:52:47.366Z,13.23
2019-02-06T12:54:51.259Z,13.53
2019-02-06T12:56:55.077Z,11.57
2019-02-06T12:58:58.904Z,11.87
2019-02-06T13:01:02.759Z,12.03
2019-02-06T13:03:09.005Z,10.87
2019-02-06T13:05:12.935Z,11.30
2019-02-06T13:07:16.453Z,11.23
2019-02-06T13:09:20.340Z,12.77
2019-02-06T13:11:24.242Z,11.43
2019-02-06T13:13:27.849Z,10.50
2019-02-06T13:15:31.651Z,11.27
2019-02-06T13:17:35.569Z,12.50
2019-02-06T13:19:39.470Z,10.13
2019-02-06T13:21:43.281Z,10.23
2019-02-06T13:23:49.529Z,9.90
2019-02-06T13:25:53.541Z,11.93
2019-02-06T13:27:57.057Z,11.40
2019-02-06T13:30:00.927Z,11.40
2019-02-06T13:32:04.780Z,9.67
2019-02-06T13:34:08.321Z,10.77
2019-02-06T13:36:12.330Z,8.27
2019-02-06T13:38:16.444Z,8.33
2019-02-06T13:40:28.085Z,7.10
2019-02-06T13:42:31.955Z,7.30
2019-02-06T13:44:35.851Z,9.53
2019-02-06T13:46:39.646Z,8.73
2019-02-06T13:48:43.183Z,6.70
2019-02-06T13:50:47.464Z,7.00
2019-02-06T13:52:51.402Z,6.65
2019-02-06T13:54:55.494Z,6.47
2019-02-06T13:56:59.681Z,6.25
2019-02-06T13:59:03.900Z,7.10
2019-02-06T14:01:09.451Z,7.45
2019-02-06T14:03:13.660Z,7.90
2019-02-06T14:05:20.124Z,7.70
2019-02-06T14:07:23.652Z,10.57
2019-02-06T14:09:27.816Z,8.20
2019-02-06T14:11:32.040Z,7.23
2019-02-06T14:13:35.940Z,12.77
2019-02-06T14:15:45.082Z,9.07
2019-02-06T14:17:48.984Z,8.93
2019-02-06T14:19:52.833Z,7.87
2019-02-06T14:21:56.689Z,8.83
2019-02-06T14:24:03.541Z,6.50
2019-02-06T14:26:14.298Z,8.87
2019-02-06T14:28:44.552Z,7.47
2019-02-06T14:31:06.513Z,7.70
2019-02-06T14:33:22.171Z,6.87
2019-02-06T14:35:32.016Z,10.00
2019-02-06T14:37:58.647Z,9.27
2019-02-06T14:40:20.633Z,7.37
2019-02-06T14:42:30.630Z,7.83
2019-02-06T14:44:43.162Z,6.70
2019-02-06T14:47:10.278Z,8.63
2019-02-06T14:49:26.177Z,9.43
2019-02-06T14:51:49.730Z,9.37
2019-02-06T14:53:59.198Z,6.83
2019-02-06T14:56:36.300Z,8.87
2019-02-06T14:59:02.212Z,6.17
2019-02-06T15:01:31.657Z,9.03
2019-02-06T15:03:40.763Z,5.83
2019-02-06T15:06:02.743Z,5.83
2019-02-06T15:08:26.407Z,6.87
2019-02-06T15:10:39.651Z,5.87
2019-02-06T15:12:52.484Z,7.95
2019-02-06T15:14:59.762Z,5.67
2019-02-06T15:17:21.761Z,6.03
2019-02-06T15:19:34.876Z,5.00
2019-02-06T15:21:50.973Z,8.05
2019-02-06T15:24:20.924Z,9.75
2019-02-06T15:26:43.043Z,13.48
2019-02-06T15:28:57.422Z,11.22
2019-02-06T15:31:10.290Z,11.68
2019-02-06T15:33:23.424Z,11.83
2019-02-06T15:35:57.911Z,11.05
2019-02-06T15:38:07.990Z,10.70
2019-02-06T15:40:24.281Z,12.68
2019-02-06T15:42:47.881Z,12.20
2019-02-06T15:44:55.117Z,14.03
2019-02-06T15:47:20.236Z,14.00
2019-02-06T15:49:42.561Z,16.30
2019-02-06T15:52:07.690Z,15.60
2019-02-06T15:54:38.933Z,15.05
2019-02-06T15:57:17.731Z,13.80
2019-02-06T15:59:57.900Z,16.62
2019-02-06T16:02:13.585Z,10.30
2019-02-06T16:04:34.086Z,15.53
2019-02-06T16:06:44.231Z,15.48
2019-02-06T16:09:09.458Z,13.68
2019-02-06T16:11:28.695Z,14.38
2019-02-06T16:13:44.232Z,13.95
2019-02-06T16:16:03.558Z,12.88
2019-02-06T16:18:10.465Z,15.15
2019-02-06T16:20:38.431Z,16.90
2019-02-06T16:22:57.364Z,18.12
2019-02-06T16:25:31.873Z,16.93
2019-02-06T16:27:44.696Z,15.50
2019-02-06T16:30:00.353Z,16.82
2019-02-06T16:32:09.146Z,17.98
2019-02-06T16:34:43.127Z,13.68
2019-02-06T16:36:55.900Z,13.28
2019-02-06T16:39:14.865Z,14.00
2019-02-06T16:41:53.011Z,17.37
2019-02-06T16:43:56.059Z,14.73
2019-02-06T16:46:27.239Z,18.15
2019-02-06T16:48:49.662Z,15.98
2019-02-06T16:51:09.017Z,17.42
2019-02-06T16:53:30.123Z,20.90
2019-02-06T16:55:58.193Z,16.77
2019-02-06T16:58:05.078Z,16.70
2019-02-06T17:00:20.568Z,21.65
2019-02-06T17:02:47.485Z,19.48
2019-02-06T17:05:06.657Z,16.62
2019-02-06T17:07:17.013Z,17.90
2019-02-06T17:09:32.832Z,18.50
2019-02-06T17:11:51.891Z,15.05
2019-02-06T17:14:10.853Z,20.08
2019-02-06T17:16:27.024Z,21.97
2019-02-06T17:18:49.835Z,19.92
2019-02-06T17:21:03.218Z,17.10
2019-02-06T17:23:16.495Z,18.60
2019-02-06T17:25:39.938Z,16.87
2019-02-06T17:27:47.615Z,21.10
2019-02-06T17:29:58.183Z,21.90
2019-02-06T17:32:16.785Z,17.00
2019-02-06T17:34:44.907Z,18.57
2019-02-06T17:36:54.941Z,19.65
2019-02-06T17:39:05.627Z,19.12
2019-02-06T17:41:20.354Z,16.27
2019-02-06T17:43:36.205Z,13.95
2019-02-06T17:46:04.690Z,14.85
2019-02-06T17:48:17.747Z,18.25
2019-02-06T17:50:47.621Z,18.15
2019-02-06T17:53:06.513Z,17.02
2019-02-06T17:55:21.646Z,16.20
2019-02-06T17:57:25.840Z,17.17
2019-02-06T17:59:30.177Z,17.82
2019-02-06T18:01:35.430Z,17.67
2019-02-06T18:03:48.215Z,17.15
2019-02-06T18:05:52.445Z,16.25
2019-02-06T18:07:56.854Z,18.07
2019-02-06T18:10:00.878Z,18.55
2019-02-06T18:12:06.083Z,18.27
2019-02-06T18:14:11.804Z,18.15
2019-02-06T18:16:21.434Z,15.83
2019-02-06T18:18:22.018Z,15.40
2019-02-06T18:20:26.228Z,16.02
2019-02-06T18:22:30.441Z,16.77
2019-02-06T18:24:34.282Z,16.90
2019-02-06T18:26:42.279Z,17.98
2019-02-06T18:28:47.769Z,18.67
2019-02-06T18:30:52.359Z,17.50
2019-02-06T18:33:01.503Z,19.73
2019-02-06T18:35:07.927Z,20.23
2019-02-06T18:37:12.521Z,17.42
2019-02-06T18:39:16.718Z,16.70
2019-02-06T18:41:21.049Z,17.35
2019-02-06T18:43:25.597Z,20.92
2019-02-06T18:45:29.896Z,17.98
2019-02-06T18:47:33.753Z,21.17
2019-02-06T18:49:37.723Z,21.87
2019-02-06T18:51:42.267Z,19.42
2019-02-06T18:53:46.867Z,23.07
2019-02-06T18:55:51.378Z,19.05
2019-02-06T18:57:55.622Z,20.75
2019-02-06T19:00:00.506Z,19.20
2019-02-06T19:02:05.230Z,20.02
2019-02-06T19:04:11.263Z,20.20
2019-02-06T19:06:15.742Z,18.55
2019-02-06T19:08:19.757Z,21.02
2019-02-06T19:10:26.385Z,21.42
2019-02-06T19:12:30.812Z,19.60
2019-02-06T19:14:35.001Z,21.93
2019-02-06T19:16:39.230Z,19.17
2019-02-06T19:18:43.395Z,21.20
2019-02-06T19:20:47.301Z,17.37
2019-02-06T19:22:51.279Z,20.92
2019-02-06T19:24:55.570Z,21.00
2019-02-06T19:27:00.936Z,20.32
2019-02-06T19:29:05.233Z,21.15
2019-02-06T19:31:09.527Z,20.05
2019-02-06T19:33:13.633Z,20.88
2019-02-06T19:35:17.829Z,19.12
2019-02-06T19:37:22.074Z,19.87
2019-02-06T19:39:26.583Z,24.47
2019-02-06T19:41:30.786Z,18.85
2019-02-06T19:43:35.015Z,18.32
2019-02-06T19:45:39.443Z,22.02
2019-02-06T19:47:43.363Z,19.23
2019-02-06T19:49:47.550Z,18.95
2019-02-06T19:51:51.968Z,16.82
2019-02-06T19:53:56.263Z,19.60
2019-02-06T19:56:00.890Z,20.08
2019-02-06T19:58:06.602Z,19.62
2019-02-06T20:00:19.468Z,15.53
2019-02-06T20:02:24.958Z,18.12
2019-02-06T20:04:31.832Z,18.67
2019-02-06T20:06:36.032Z,17.48
2019-02-06T20:08:40.191Z,15.35
2019-02-06T20:10:50.396Z,19.25
2019-02-06T20:12:54.577Z,17.23
2019-02-06T20:15:03.795Z,20.48
2019-02-06T20:17:07.598Z,18.77
2019-02-06T20:19:11.435Z,18.77
2019-02-06T20:21:15.792Z,16.87
2019-02-06T20:23:19.928Z,18.65
2019-02-06T20:25:23.922Z,16.27
2019-02-06T20:27:28.147Z,20.95
2019-02-06T20:29:32.265Z,19.62
2019-02-06T20:31:36.353Z,21.07
2019-02-06T20:33:40.212Z,14.98
2019-02-06T20:35:45.694Z,20.75
2019-02-06T20:37:49.833Z,23.50
2019-02-06T20:39:54.373Z,24.05
2019-02-06T20:41:58.566Z,26.55
2019-02-06T20:44:02.796Z,25.70
2019-02-06T20:46:07.000Z,22.22
2019-02-06T20:48:10.874Z,23.75
2019-02-06T20:50:21.072Z,21.52
2019-02-06T20:52:25.461Z,19.12
2019-02-06T20:54:29.667Z,18.42
2019-02-06T20:56:33.794Z,16.87
2019-02-06T20:58:39.614Z,19.62
2019-02-06T21:00:44.074Z,16.97
2019-02-06T21:02:48.271Z,16.95
2019-02-06T21:04:52.475Z,17.57
2019-02-06T21:06:56.303Z,21.82
2019-02-06T21:09:00.495Z,21.60
2019-02-06T21:11:05.218Z,25.90
2019-02-06T21:13:09.052Z,25.17
2019-02-06T21:15:13.682Z,25.75
2019-02-06T21:17:17.511Z,28.67
2019-02-06T21:19:21.650Z,22.02
2019-02-06T21:21:26.174Z,20.37
2019-02-06T21:23:30.382Z,19.05
2019-02-06T21:25:34.230Z,21.85
2019-02-06T21:27:38.398Z,19.55
2019-02-06T21:29:42.524Z,22.80
2019-02-06T21:31:46.933Z,38.95
2019-02-06T21:33:51.170Z,36.58
2019-02-06T21:35:55.041Z,26.85
2019-02-06T21:37:58.884Z,22.60
2019-02-06T21:40:02.810Z,24.05
2019-02-06T21:42:07.382Z,21.73
2019-02-06T21:44:11.488Z,23.73
2019-02-06T21:46:15.596Z,23.42
2019-02-06T21:48:22.285Z,21.05
2019-02-06T21:50:25.976Z,22.13
2019-02-06T21:52:30.439Z,24.05
2019-02-06T21:54:34.210Z,22.17
2019-02-06T21:56:38.293Z,19.77
2019-02-06T21:58:42.503Z,18.70
2019-02-06T22:00:46.638Z,21.30
2019-02-06T22:02:51.350Z,21.30
2019-02-06T22:04:55.286Z,21.23
2019-02-06T22:06:59.117Z,24.47
2019-02-06T22:09:03.312Z,25.45
2019-02-06T22:11:07.182Z,26.68
2019-02-06T22:13:11.596Z,24.95
2019-02-06T22:15:24.215Z,23.73
2019-02-06T22:17:28.418Z,22.25
2019-02-06T22:19:32.640Z,23.07
2019-02-06T22:21:36.834Z,21.17
2019-02-06T22:23:40.682Z,22.67
2019-02-06T22:25:44.864Z,26.30
2019-02-06T22:27:50.686Z,22.70
2019-02-06T22:29:57.466Z,18.05
2019-02-06T22:32:01.588Z,21.27
2019-02-06T22:34:05.900Z,24.32
2019-02-06T22:36:10.312Z,22.00
2019-02-06T22:38:14.446Z,22.25
2019-02-06T22:40:20.400Z,22.52
2019-02-06T22:42:24.599Z,21.42
2019-02-06T22:44:28.461Z,21.70
2019-02-06T22:46:32.606Z,21.52
2019-02-06T22:48:36.717Z,23.57
2019-02-06T22:50:40.845Z,23.35
2019-02-06T22:52:45.038Z,22.62
2019-02-06T22:54:49.159Z,20.80
2019-02-06T22:56:53.368Z,24.50
2019-02-06T22:58:57.576Z,26.60
2019-02-06T23:01:04.754Z,26.12
2019-02-06T23:03:09.003Z,27.95
2019-02-06T23:05:13.200Z,28.27
2019-02-06T23:07:17.504Z,30.70
2019-02-06T23:09:21.810Z,33.35
2019-02-06T23:11:26.355Z,25.62
2019-02-06T23:13:30.656Z,24.90
2019-02-06T23:15:34.954Z,23.85
2019-02-06T23:17:39.291Z,35.68
2019-02-06T23:19:43.713Z,28.32
2019-02-06T23:21:47.920Z,25.75
2019-02-06T23:23:52.111Z,24.32
2019-02-06T23:25:56.341Z,23.20
2019-02-06T23:28:00.556Z,24.35
2019-02-06T23:30:08.300Z,20.48
2019-02-06T23:32:12.137Z,22.17
2019-02-06T23:34:16.354Z,25.08
2019-02-06T23:36:20.482Z,24.52
2019-02-06T23:38:24.603Z,20.25
2019-02-06T23:40:28.453Z,22.77
2019-02-06T23:42:32.275Z,22.90
2019-02-06T23:44:36.409Z,25.65
2019-02-06T23:46:40.606Z,25.57
2019-02-06T23:48:44.711Z,26.70
2019-02-06T23:50:48.835Z,27.55
2019-02-06T23:52:53.055Z,23.67
2019-02-06T23:54:57.253Z,22.98
2019-02-06T23:57:01.379Z,25.10
2019-02-06T23:59:05.453Z,24.85
